Time;durP1;ratioP1;P1;durP2;ratioP2;P2;SDS_P1;SDS_P2;PMS_P1;PMS_P2;Temp;Humidity;BMP_temperature;BMP_pressure;BME280_temperature;BME280_humidity;BME280_pressure;Samples;Min_cycle;Max_cycle;Signal;HPM_P1;HPM_P2
2023/03/05 00:01:29;;;;;;;;;;;;;;;;;;5004849;28;43659;-84
2023/03/05 00:03:55;;;;;;;;;;;;;;;;;;5005255;28;42857;-83
2023/03/05 00:06:21;;;;;;;;;;;;;;;;;;5005351;28;42942;-84
2023/03/05 00:08:47;;;;;;;;;;;;;;;;;;5005454;28;43079;-83
2023/03/05 00:11:12;;;;;;;;;;;;;;;;;;5005140;28;43125;-84
2023/03/05 00:13:38;;;;;;;;;;;;;;;;;;5003832;28;42913;-83
2023/03/05 00:16:04;;;;;;;;;;;;;;;;;;5004940;28;43827;-84
2023/03/05 00:18:30;;;;;;;;;;;;;;;;;;5004971;28;43053;-83
2023/03/05 00:20:56;;;;;;;;;;;;;;;;;;5005365;28;43000;-84
2023/03/05 00:23:22;;;;;;;;;;;;;;;;;;5005695;28;43009;-82
2023/03/05 00:25:48;;;;;;;;;;;;;;;;;;5005337;28;43530;-81
2023/03/05 00:28:14;;;;;;;;;;;;;;;;;;5005494;28;43102;-84
2023/03/05 00:30:39;;;;;;;;;;;;;;;;;;5005353;28;43434;-84
2023/03/05 00:33:05;;;;;;;;;;;;;;;;;;5005063;28;42869;-84
2023/03/05 00:35:31;;;;;;;;;;;;;;;;;;5005352;28;43938;-83
2023/03/05 00:37:57;;;;;;;;;;;;;;;;;;5004838;28;42846;-83
2023/03/05 00:40:23;;;;;;;;;;;;;;;;;;5004758;28;43278;-83
2023/03/05 00:42:49;;;;;;;;;;;;;;;;;;5004474;28;43011;-82
2023/03/05 00:45:15;;;;;;;;;;;;;;;;;;5004371;28;43366;-84
2023/03/05 00:47:41;;;;;;;;;;;;;;;;;;5004547;28;43169;-82
2023/03/05 00:50:06;;;;;;;;;;;;;;;;;;5004385;28;43011;-82
2023/03/05 00:52:32;;;;;;;;;;;;;;;;;;5007201;28;42896;-84
2023/03/05 00:54:58;;;;;;;;;;;;;;;;;;5006534;28;42890;-82
2023/03/05 00:57:24;;;;;;;;;;;;;;;;;;5003824;28;43048;-85
2023/03/05 00:59:50;;;;;;;;;;;;;;;;;;5004730;28;42817;-85
2023/03/05 01:02:16;;;;;;;;;;;;;;;;;;5004878;28;43152;-84
2023/03/05 01:04:44;;;;;;;;;;;;;;;;;;5004681;28;42853;-85
2023/03/05 01:07:10;;;;;;;;;;;;;;;;;;5005222;28;42886;-84
2023/03/05 01:09:36;;;;;;;;;;;;;;;;;;5004766;28;42834;-82
2023/03/05 01:12:02;;;;;;;;;;;;;;;;;;5006993;28;42965;-83
2023/03/05 01:14:28;;;;;;;;;;;;;;;;;;5020143;28;44683;-84
2023/03/05 01:16:54;;;;;;;;;;;;;;;;;;5008023;28;42824;-83
2023/03/05 01:19:20;;;;;;;;;;;;;;;;;;5007783;28;43407;-84
2023/03/05 01:21:45;;;;;;;;;;;;;;;;;;5023174;28;42988;-83
2023/03/05 01:24:11;;;;;;;;;;;;;;;;;;5007894;28;43744;-84
2023/03/05 01:26:37;;;;;;;;;;;;;;;;;;5008353;28;42924;-85
2023/03/05 01:29:03;;;;;;;;;;;;;;;;;;5008203;28;43569;-84
2023/03/05 01:31:29;;;;;;;;;;;;;;;;;;5007789;28;42948;-84
2023/03/05 01:33:55;;;;;;;;;;;;;;;;;;5008092;28;42943;-82
2023/03/05 01:36:22;;;;;;;;;;;;;;;;;;5008076;28;43089;-83
2023/03/05 01:38:48;;;;;;;;;;;;;;;;;;5007191;28;43552;-83
2023/03/05 01:41:13;;;;;;;;;;;;;;;;;;5007850;28;43048;-83
2023/03/05 01:43:39;;;;;;;;;;;;;;;;;;5022803;28;45422;-84
2023/03/05 01:46:05;;;;;;;;;;;;;;;;;;5007910;28;42862;-83
2023/03/05 01:48:31;;;;;;;;;;;;;;;;;;5007473;28;43744;-84
2023/03/05 01:50:57;;;;;;;;;;;;;;;;;;5007694;28;42798;-84
2023/03/05 01:53:23;;;;;;;;;;;;;;;;;;5006797;28;44018;-84
2023/03/05 01:55:49;;;;;;;;;;;;;;;;;;5006766;28;42918;-85
2023/03/05 01:58:15;;;;;;;;;;;;;;;;;;5006834;28;43367;-81
2023/03/05 02:00:40;;;;;;;;;;;;;;;;;;5007236;28;42865;-85
2023/03/05 02:03:06;;;;;;;;;;;;;;;;;;5006779;28;42920;-85
2023/03/05 02:05:32;;;;;;;;;;;;;;;;;;5006552;28;42992;-83
2023/03/05 02:07:58;;;;;;;;;;;;;;;;;;5007388;28;42998;-83
2023/03/05 02:10:24;;;;;;;;;;;;;;;;;;5007190;28;42954;-82
2023/03/05 02:12:50;;;;;;;;;;;;;;;;;;5007288;28;42937;-83
2023/03/05 02:15:16;;;;;;;;;;;;;;;;;;5007304;28;42988;-84
2023/03/05 02:17:42;;;;;;;;;;;;;;;;;;5006553;28;43044;-83
2023/03/05 02:20:08;;;;;;;;;;;;;;;;;;5022536;28;42931;-83
2023/03/05 02:22:34;;;;;;;;;;;;;;;;;;5005983;28;43864;-83
2023/03/05 02:24:59;;;;;;;;;;;;;;;;;;5021752;28;42949;-83
2023/03/05 02:27:33;;;;;;;;;;;;;;;;;;5007517;28;42774;-84
2023/03/05 02:29:59;;;;;;;;;;;;;;;;;;5007411;28;42957;-84
2023/03/05 02:32:25;;;;;;;;;;;;;;;;;;5008345;28;43664;-85
2023/03/05 02:34:51;;;;;;;;;;;;;;;;;;5011539;28;43165;-83
2023/03/05 02:37:17;;;;;;;;;;;;;;;;;;5011067;28;42854;-83
2023/03/05 02:39:42;;;;;;;;;;;;;;;;;;5009411;28;42849;-84
2023/03/05 02:42:08;;;;;;;;;;;;;;;;;;5009385;28;42995;-84
2023/03/05 02:44:34;;;;;;;;;;;;;;;;;;5007709;28;43015;-84
2023/03/05 02:47:00;;;;;;;;;;;;;;;;;;5009065;28;43819;-83
2023/03/05 02:49:26;;;;;;;;;;;;;;;;;;5022406;28;42969;-84
2023/03/05 02:51:52;;;;;;;;;;;;;;;;;;5006621;28;43371;-84
2023/03/05 02:54:18;;;;;;;;;;;;;;;;;;5006570;28;42983;-85
2023/03/05 02:56:44;;;;;;;;;;;;;;;;;;5006273;28;43532;-84
2023/03/05 02:59:10;;;;;;;;;;;;;;;;;;5001523;28;44198;-84
2023/03/05 03:01:36;;;;;;;;;;;;;;;;;;5004825;28;43020;-84
2023/03/05 03:04:01;;;;;;;;;;;;;;;;;;5006962;28;42983;-83
2023/03/05 03:06:27;;;;;;;;;;;;;;;;;;5006603;28;43019;-84
2023/03/05 03:08:53;;;;;;;;;;;;;;;;;;5006009;28;42978;-84
2023/03/05 03:11:20;;;;;;;;;;;;;;;;;;5006419;28;43448;-83
2023/03/05 03:13:46;;;;;;;;;;;;;;;;;;5006407;28;42940;-84
2023/03/05 03:16:12;;;;;;;;;;;;;;;;;;5006098;28;43468;-84
2023/03/05 03:18:37;;;;;;;;;;;;;;;;;;5005930;28;42926;-84
2023/03/05 03:21:03;;;;;;;;;;;;;;;;;;5005928;28;42905;-84
2023/03/05 03:23:29;;;;;;;;;;;;;;;;;;5020798;28;43013;-84
2023/03/05 03:25:55;;;;;;;;;;;;;;;;;;5005772;28;43078;-85
2023/03/05 03:28:21;;;;;;;;;;;;;;;;;;5006123;28;42860;-84
2023/03/05 03:30:47;;;;;;;;;;;;;;;;;;5020489;28;44852;-84
2023/03/05 03:33:13;;;;;;;;;;;;;;;;;;5005672;28;42994;-81
2023/03/05 03:35:39;;;;;;;;;;;;;;;;;;5005339;28;42952;-83
2023/03/05 03:38:04;;;;;;;;;;;;;;;;;;5005883;28;42926;-85
2023/03/05 03:40:30;;;;;;;;;;;;;;;;;;5005396;28;42845;-81
2023/03/05 03:42:56;;;;;;;;;;;;;;;;;;5018742;28;43053;-83
2023/03/05 03:45:22;;;;;;;;;;;;;;;;;;5005258;28;42894;-84
2023/03/05 03:47:48;;;;;;;;;;;;;;;;;;5005789;28;42959;-83
2023/03/05 03:50:14;;;;;;;;;;;;;;;;;;5006016;28;42971;-84
2023/03/05 03:52:40;;;;;;;;;;;;;;;;;;5005436;28;42985;-84
2023/03/05 03:55:06;;;;;;;;;;;;;;;;;;5005444;28;43640;-83
2023/03/05 03:57:35;;;;;;;;;;;;;;;;;;5005319;28;43075;-84
2023/03/05 04:00:01;;;;;;;;;;;;;;;;;;5005026;28;43449;-81
2023/03/05 04:02:26;;;;;;;;;;;;;;;;;;5005219;28;42976;-84
2023/03/05 04:04:52;;;;;;;;;;;;;;;;;;5004792;28;43425;-84
2023/03/05 04:07:18;;;;;;;;;;;;;;;;;;5010461;28;43019;-80
2023/03/05 04:09:44;;;;;;;;;;;;;;;;;;5007007;28;42967;-80
2023/03/05 04:12:10;;;;;;;;;;;;;;;;;;5009914;28;43043;-82
2023/03/05 04:14:36;;;;;;;;;;;;;;;;;;4992784;28;43184;-81
2023/03/05 04:17:02;;;;;;;;;;;;;;;;;;5005128;28;42948;-82
2023/03/05 04:19:29;;;;;;;;;;;;;;;;;;5004500;28;42885;-82
2023/03/05 04:21:55;;;;;;;;;;;;;;;;;;5013832;28;44184;-83
2023/03/05 04:24:21;;;;;;;;;;;;;;;;;;5021241;28;43636;-82
2023/03/05 04:26:47;;;;;;;;;;;;;;;;;;5023802;28;43220;-80
2023/03/05 04:29:13;;;;;;;;;;;;;;;;;;5024097;28;43875;-83
2023/03/05 04:31:38;;;;;;;;;;;;;;;;;;5009227;28;42951;-82
2023/03/05 04:34:04;;;;;;;;;;;;;;;;;;5004065;28;43757;-82
2023/03/05 04:36:30;;;;;;;;;;;;;;;;;;5009539;28;43043;-83
2023/03/05 04:38:56;;;;;;;;;;;;;;;;;;5024335;28;42950;-83
2023/03/05 04:41:22;;;;;;;;;;;;;;;;;;5023244;28;42938;-81
2023/03/05 04:43:48;;;;;;;;;;;;;;;;;;5024875;28;43662;-82
2023/03/05 04:46:14;;;;;;;;;;;;;;;;;;5005310;28;42944;-81
2023/03/05 04:48:40;;;;;;;;;;;;;;;;;;5004090;28;43475;-81
2023/03/05 04:51:06;;;;;;;;;;;;;;;;;;5004484;28;42864;-79
2023/03/05 04:53:32;;;;;;;;;;;;;;;;;;5004795;28;43006;-85
2023/03/05 04:56:00;;;;;;;;;;;;;;;;;;5021021;28;43046;-85
2023/03/05 04:58:26;;;;;;;;;;;;;;;;;;5024354;28;43641;-84
2023/03/05 05:00:52;;;;;;;;;;;;;;;;;;5003188;28;44340;-85
2023/03/05 05:03:17;;;;;;;;;;;;;;;;;;5018854;28;43783;-84
2023/03/05 05:05:43;;;;;;;;;;;;;;;;;;5004245;28;42855;-83
2023/03/05 05:08:09;;;;;;;;;;;;;;;;;;5004626;28;42940;-84
2023/03/05 05:10:38;;;;;;;;;;;;;;;;;;5002494;28;42929;-84
2023/03/05 05:13:04;;;;;;;;;;;;;;;;;;5004474;28;43800;-85
2023/03/05 05:15:31;;;;;;;;;;;;;;;;;;5004470;28;42874;-84
2023/03/05 05:17:56;;;;;;;;;;;;;;;;;;5018933;28;44523;-85
2023/03/05 05:20:22;;;;;;;;;;;;;;;;;;5004669;28;42918;-85
2023/03/05 05:22:48;;;;;;;;;;;;;;;;;;5002932;28;43093;-85
2023/03/05 05:25:14;;;;;;;;;;;;;;;;;;5004276;28;43040;-84
2023/03/05 05:27:40;;;;;;;;;;;;;;;;;;5004391;28;43553;-85
2023/03/05 05:30:06;;;;;;;;;;;;;;;;;;5004622;28;43039;-85
2023/03/05 05:32:32;;;;;;;;;;;;;;;;;;5004596;28;43888;-83
2023/03/05 05:34:58;;;;;;;;;;;;;;;;;;5002901;28;42715;-85
2023/03/05 05:37:24;;;;;;;;;;;;;;;;;;5004556;28;42799;-86
2023/03/05 05:39:50;;;;;;;;;;;;;;;;;;5005516;28;42955;-86
2023/03/05 05:42:16;;;;;;;;;;;;;;;;;;5014767;28;42734;-85
2023/03/05 05:44:41;;;;;;;;;;;;;;;;;;5012214;28;42933;-86
2023/03/05 05:47:07;;;;;;;;;;;;;;;;;;5013856;28;43850;-86
2023/03/05 05:49:33;;;;;;;;;;;;;;;;;;5012855;28;42884;-84
2023/03/05 05:51:59;;;;;;;;;;;;;;;;;;5014667;28;42777;-85
2023/03/05 05:54:25;;;;;;;;;;;;;;;;;;5013802;28;43063;-85
2023/03/05 05:56:51;;;;;;;;;;;;;;;;;;5012577;28;42971;-84
2023/03/05 05:59:17;;;;;;;;;;;;;;;;;;5011319;28;43007;-83
2023/03/05 06:01:43;;;;;;;;;;;;;;;;;;5009767;28;43840;-85
2023/03/05 06:04:09;;;;;;;;;;;;;;;;;;4997209;28;43543;-85
2023/03/05 06:06:34;;;;;;;;;;;;;;;;;;4996981;28;42953;-86
2023/03/05 06:09:00;;;;;;;;;;;;;;;;;;4995125;28;42914;-85
2023/03/05 06:11:26;;;;;;;;;;;;;;;;;;4996654;28;43427;-83
2023/03/05 06:13:52;;;;;;;;;;;;;;;;;;4996524;28;42862;-84
2023/03/05 06:16:18;;;;;;;;;;;;;;;;;;4995156;28;43130;-85
2023/03/05 06:18:44;;;;;;;;;;;;;;;;;;4998416;28;42917;-86
2023/03/05 06:21:10;;;;;;;;;;;;;;;;;;5016973;28;43023;-89
2023/03/05 06:23:38;;;;;;;;;;;;;;;;;;5016875;28;43030;-83
2023/03/05 06:26:04;;;;;;;;;;;;;;;;;;5030471;28;44448;-82
2023/03/05 06:28:30;;;;;;;;;;;;;;;;;;5013234;28;43696;-81
2023/03/05 06:30:56;;;;;;;;;;;;;;;;;;5004405;28;43068;-79
2023/03/05 06:33:27;;;;;;;;;;;;;;;;;;5006709;28;43065;-81
2023/03/05 06:35:53;;;;;;;;;;;;;;;;;;5021819;28;44508;-79
2023/03/05 06:38:19;;;;;;;;;;;;;;;;;;5016790;28;42930;-79
2023/03/05 06:40:45;;;;;;;;;;;;;;;;;;5009762;28;43027;-79
2023/03/05 06:43:14;;;;;;;;;;;;;;;;;;5004439;28;42901;-81
2023/03/05 06:45:40;;;;;;;;;;;;;;;;;;4992899;28;43599;-81
2023/03/05 06:48:06;;;;;;;;;;;;;;;;;;5016989;28;42978;-82
2023/03/05 06:50:32;;;;;;;;;;;;;;;;;;5029726;28;45189;-81
2023/03/05 06:52:58;;;;;;;;;;;;;;;;;;5029244;28;42831;-80
2023/03/05 06:55:23;;;;;;;;;;;;;;;;;;5021135;28;44331;-81
2023/03/05 06:57:49;;;;;;;;;;;;;;;;;;5021567;28;43062;-78
2023/03/05 07:00:15;;;;;;;;;;;;;;;;;;5006233;28;42755;-78
2023/03/05 07:02:41;;;;;;;;;;;;;;;;;;5006408;28;43028;-77
2023/03/05 07:05:07;;;;;;;;;;;;;;;;;;5010866;28;43141;-78
2023/03/05 07:07:33;;;;;;;;;;;;;;;;;;5016500;28;42943;-80
2023/03/05 07:09:59;;;;;;;;;;;;;;;;;;5014625;28;43028;-78
2023/03/05 07:12:25;;;;;;;;;;;;;;;;;;5015778;28;42952;-80
2023/03/05 07:14:51;;;;;;;;;;;;;;;;;;5010899;28;43906;-84
2023/03/05 07:17:16;;;;;;;;;;;;;;;;;;5011778;28;42918;-80
2023/03/05 07:19:42;;;;;;;;;;;;;;;;;;5012231;28;44501;-88
2023/03/05 07:22:08;;;;;;;;;;;;;;;;;;5026632;28;43132;-79
2023/03/05 07:24:34;;;;;;;;;;;;;;;;;;5006821;28;43756;-79
2023/03/05 07:27:00;;;;;;;;;;;;;;;;;;5010871;28;42798;-80
2023/03/05 07:29:26;;;;;;;;;;;;;;;;;;5003943;28;43586;-79
2023/03/05 07:31:52;;;;;;;;;;;;;;;;;;5003899;28;43109;-79
2023/03/05 07:34:18;;;;;;;;;;;;;;;;;;5005200;28;43833;-78
2023/03/05 07:36:45;;;;;;;;;;;;;;;;;;5004685;28;43019;-80
2023/03/05 07:39:11;;;;;;;;;;;;;;;;;;5005691;28;42960;-80
2023/03/05 07:41:37;;;;;;;;;;;;;;;;;;5004772;28;42713;-81
2023/03/05 07:44:03;;;;;;;;;;;;;;;;;;5005736;28;44057;-79
2023/03/05 07:46:29;;;;;;;;;;;;;;;;;;5006200;28;43034;-79
2023/03/05 07:48:55;;;;;;;;;;;;;;;;;;5005874;28;42937;-79
2023/03/05 07:51:21;;;;;;;;;;;;;;;;;;5005987;28;42861;-80
2023/03/05 07:53:47;;;;;;;;;;;;;;;;;;5006063;28;42972;-78
2023/03/05 07:56:13;;;;;;;;;;;;;;;;;;5005767;28;43048;-79
2023/03/05 07:58:39;;;;;;;;;;;;;;;;;;5005319;28;43867;-80
2023/03/05 08:01:04;;;;;;;;;;;;;;;;;;5005280;28;42872;-80
2023/03/05 08:03:30;;;;;;;;;;;;;;;;;;5003918;28;45426;-79
2023/03/05 08:05:56;;;;;;;;;;;;;;;;;;5005353;28;42926;-80
2023/03/05 08:08:22;;;;;;;;;;;;;;;;;;5005527;28;43026;-79
2023/03/05 08:10:48;;;;;;;;;;;;;;;;;;5005769;28;43003;-79
2023/03/05 08:13:14;;;;;;;;;;;;;;;;;;5005025;28;43861;-79
2023/03/05 08:15:40;;;;;;;;;;;;;;;;;;5004913;28;42956;-81
2023/03/05 08:18:06;;;;;;;;;;;;;;;;;;5004905;28;43583;-79
2023/03/05 08:20:32;;;;;;;;;;;;;;;;;;5004541;28;42930;-80
2023/03/05 08:22:58;;;;;;;;;;;;;;;;;;5005608;28;43410;-79
2023/03/05 08:25:23;;;;;;;;;;;;;;;;;;5005048;28;42972;-78
2023/03/05 08:27:49;;;;;;;;;;;;;;;;;;5004877;28;44025;-79
2023/03/05 08:30:15;;;;;;;;;;;;;;;;;;5004952;28;42921;-79
2023/03/05 08:32:41;;;;;;;;;;;;;;;;;;5004944;28;43004;-80
2023/03/05 08:35:08;;;;;;;;;;;;;;;;;;5004030;28;42917;-79
2023/03/05 08:37:34;;;;;;;;;;;;;;;;;;5005224;28;42683;-78
2023/03/05 08:40:00;;;;;;;;;;;;;;;;;;5005129;28;42841;-78
2023/03/05 08:42:26;;;;;;;;;;;;;;;;;;5005387;28;42921;-78
2023/03/05 08:44:51;;;;;;;;;;;;;;;;;;5005438;28;43122;-78
2023/03/05 08:47:19;;;;;;;;;;;;;;;;;;5005228;28;43886;-78
2023/03/05 08:49:45;;;;;;;;;;;;;;;;;;5005115;28;42868;-78
2023/03/05 08:52:10;;;;;;;;;;;;;;;;;;5004657;28;42960;-78
2023/03/05 08:54:36;;;;;;;;;;;;;;;;;;5004697;28;43020;-79
2023/03/05 08:57:02;;;;;;;;;;;;;;;;;;5004512;28;42987;-78
2023/03/05 08:59:28;;;;;;;;;;;;;;;;;;5004813;28;42929;-78
2023/03/05 09:01:54;;;;;;;;;;;;;;;;;;5004597;28;43526;-78
2023/03/05 09:04:20;;;;;;;;;;;;;;;;;;5004960;28;42874;-79
2023/03/05 09:06:46;;;;;;;;;;;;;;;;;;5004875;28;42799;-78
2023/03/05 09:09:12;;;;;;;;;;;;;;;;;;5004562;28;43231;-78
2023/03/05 09:11:38;;;;;;;;;;;;;;;;;;5004151;28;43124;-78
2023/03/05 09:14:04;;;;;;;;;;;;;;;;;;5004876;28;42922;-79
2023/03/05 09:16:30;;;;;;;;;;;;;;;;;;5004407;28;43079;-79
2023/03/05 09:18:56;;;;;;;;;;;;;;;;;;5004648;28;43030;-78
2023/03/05 09:21:22;;;;;;;;;;;;;;;;;;5004246;28;43363;-78
2023/03/05 09:23:48;;;;;;;;;;;;;;;;;;5004510;28;42887;-78
2023/03/05 09:26:15;;;;;;;;;;;;;;;;;;5003041;28;44388;-78
2023/03/05 09:28:41;;;;;;;;;;;;;;;;;;5004678;28;42992;-78
2023/03/05 09:31:07;;;;;;;;;;;;;;;;;;5004084;28;42992;-78
2023/03/05 09:33:32;;;;;;;;;;;;;;;;;;5007247;28;42870;-78
2023/03/05 09:35:58;;;;;;;;;;;;;;;;;;5006360;28;43329;-79
2023/03/05 09:38:24;;;;;;;;;;;;;;;;;;5007543;28;42874;-78
2023/03/05 09:40:50;;;;;;;;;;;;;;;;;;5007580;28;43630;-78
2023/03/05 09:43:16;;;;;;;;;;;;;;;;;;5007891;28;42765;-79
2023/03/05 09:45:42;;;;;;;;;;;;;;;;;;5007549;28;43408;-78
2023/03/05 09:48:08;;;;;;;;;;;;;;;;;;5007372;28;42715;-79
2023/03/05 09:50:34;;;;;;;;;;;;;;;;;;5007540;28;43025;-79
2023/03/05 09:52:59;;;;;;;;;;;;;;;;;;5007649;28;42996;-79
2023/03/05 09:55:25;;;;;;;;;;;;;;;;;;5007201;28;43482;-80
2023/03/05 09:57:53;;;;;;;;;;;;;;;;;;5005473;28;42985;-79
2023/03/05 10:00:19;;;;;;;;;;;;;;;;;;5005926;28;44803;-79
2023/03/05 10:02:45;;;;;;;;;;;;;;;;;;5006322;28;42990;-79
2023/03/05 10:05:11;;;;;;;;;;;;;;;;;;5007229;28;43566;-79
2023/03/05 10:07:37;;;;;;;;;;;;;;;;;;5006062;28;42763;-78
2023/03/05 10:10:03;;;;;;;;;;;;;;;;;;5007527;28;44043;-79
2023/03/05 10:12:30;;;;;;;;;;;;;;;;;;5007873;28;42972;-79
2023/03/05 10:14:56;;;;;;;;;;;;;;;;;;5007429;28;43644;-79
2023/03/05 10:17:22;;;;;;;;;;;;;;;;;;5005774;28;42893;-78
2023/03/05 10:19:48;;;;;;;;;;;;;;;;;;5005919;28;46036;-79
2023/03/05 10:22:13;;;;;;;;;;;;;;;;;;5005557;28;42932;-80
2023/03/05 10:24:39;;;;;;;;;;;;;;;;;;5007331;28;43773;-79
2023/03/05 10:27:05;;;;;;;;;;;;;;;;;;5007391;28;42945;-80
2023/03/05 10:29:31;;;;;;;;;;;;;;;;;;5006683;28;43689;-80
2023/03/05 10:31:57;;;;;;;;;;;;;;;;;;5006542;28;42923;-78
2023/03/05 10:34:26;;;;;;;;;;;;;;;;;;5005101;28;44526;-80
2023/03/05 10:36:52;;;;;;;;;;;;;;;;;;5007037;28;42961;-79
2023/03/05 10:39:17;;;;;;;;;;;;;;;;;;5005393;28;44708;-80
2023/03/05 10:41:44;;;;;;;;;;;;;;;;;;5006745;28;42960;-79
2023/03/05 10:44:10;;;;;;;;;;;;;;;;;;5006155;28;42805;-79
2023/03/05 10:46:35;;;;;;;;;;;;;;;;;;5005374;28;43006;-80
2023/03/05 10:49:01;;;;;;;;;;;;;;;;;;5005345;28;44244;-80
2023/03/05 10:51:27;;;;;;;;;;;;;;;;;;5006999;28;43011;-79
2023/03/05 10:53:53;;;;;;;;;;;;;;;;;;5006137;28;42880;-78
2023/03/05 10:56:19;;;;;;;;;;;;;;;;;;5006305;28;42949;-78
2023/03/05 10:58:45;;;;;;;;;;;;;;;;;;5006544;28;43658;-80
2023/03/05 11:01:11;;;;;;;;;;;;;;;;;;5006481;28;42861;-78
2023/03/05 11:03:37;;;;;;;;;;;;;;;;;;5006587;28;42862;-78
2023/03/05 11:06:03;;;;;;;;;;;;;;;;;;5006722;28;43103;-78
2023/03/05 11:08:29;;;;;;;;;;;;;;;;;;5006262;28;42933;-78
2023/03/05 11:10:54;;;;;;;;;;;;;;;;;;5006063;28;42822;-78
2023/03/05 11:13:20;;;;;;;;;;;;;;;;;;5006200;28;42980;-78
2023/03/05 11:15:46;;;;;;;;;;;;;;;;;;5006593;28;42898;-78
2023/03/05 11:18:12;;;;;;;;;;;;;;;;;;5006031;28;42938;-78
2023/03/05 11:20:38;;;;;;;;;;;;;;;;;;5006492;28;42950;-78
2023/03/05 11:23:04;;;;;;;;;;;;;;;;;;5006362;28;43550;-78
2023/03/05 11:25:30;;;;;;;;;;;;;;;;;;5006352;28;43010;-78
2023/03/05 11:27:56;;;;;;;;;;;;;;;;;;5005753;28;43481;-78
2023/03/05 11:30:22;;;;;;;;;;;;;;;;;;5006680;28;42961;-78
2023/03/05 11:32:48;;;;;;;;;;;;;;;;;;5006203;28;42965;-78
2023/03/05 11:35:14;;;;;;;;;;;;;;;;;;5006306;28;42881;-78
2023/03/05 11:37:39;;;;;;;;;;;;;;;;;;5006321;28;43383;-78
2023/03/05 11:40:05;;;;;;;;;;;;;;;;;;5006236;28;42909;-78
2023/03/05 11:42:31;;;;;;;;;;;;;;;;;;5005484;28;43391;-78
2023/03/05 11:44:57;;;;;;;;;;;;;;;;;;5005678;28;42869;-78
2023/03/05 11:47:23;;;;;;;;;;;;;;;;;;5006351;28;42989;-78
2023/03/05 11:49:49;;;;;;;;;;;;;;;;;;5005829;28;43140;-78
2023/03/05 11:52:16;;;;;;;;;;;;;;;;;;5006228;28;42993;-78
2023/03/05 11:54:41;;;;;;;;;;;;;;;;;;5006089;28;42885;-78
2023/03/05 11:57:09;;;;;;;;;;;;;;;;;;5006328;28;42961;-78
2023/03/05 11:59:35;;;;;;;;;;;;;;;;;;5006063;28;43003;-78
2023/03/05 12:02:01;;;;;;;;;;;;;;;;;;5005476;28;43631;-78
2023/03/05 12:04:28;;;;;;;;;;;;;;;;;;5005906;28;42967;-78
2023/03/05 12:06:54;;;;;;;;;;;;;;;;;;5005616;28;44055;-78
2023/03/05 12:09:20;;;;;;;;;;;;;;;;;;5005740;28;42801;-78
2023/03/05 12:11:46;;;;;;;;;;;;;;;;;;5005038;28;43797;-78
2023/03/05 12:14:11;;;;;;;;;;;;;;;;;;5004886;28;42972;-78
2023/03/05 12:16:37;;;;;;;;;;;;;;;;;;5004696;28;42975;-79
2023/03/05 12:19:03;;;;;;;;;;;;;;;;;;5005314;28;43019;-78
2023/03/05 12:21:31;;;;;;;;;;;;;;;;;;5005445;28;42909;-78
2023/03/05 12:24:00;;;;;;;;;;;;;;;;;;5005277;28;43039;-78
2023/03/05 12:26:28;;;;;;;;;;;;;;;;;;5004261;28;64830;-78
2023/03/05 12:28:54;;;;;;;;;;;;;;;;;;5005150;28;43564;-78
2023/03/05 12:31:20;;;;;;;;;;;;;;;;;;5005266;28;43324;-78
2023/03/05 12:33:46;;;;;;;;;;;;;;;;;;5004760;28;43040;-78
2023/03/05 12:36:12;;;;;;;;;;;;;;;;;;5005029;28;42975;-78
2023/03/05 12:38:38;;;;;;;;;;;;;;;;;;5004710;28;43000;-78
2023/03/05 12:41:03;;;;;;;;;;;;;;;;;;5004872;28;42837;-78
2023/03/05 12:43:29;;;;;;;;;;;;;;;;;;5005380;28;42893;-78
2023/03/05 12:45:55;;;;;;;;;;;;;;;;;;5005049;28;42721;-78
2023/03/05 12:48:21;;;;;;;;;;;;;;;;;;5005168;28;42817;-78
2023/03/05 12:50:47;;;;;;;;;;;;;;;;;;5004935;28;43037;-78
2023/03/05 12:53:13;;;;;;;;;;;;;;;;;;5004758;28;42846;-78
2023/03/05 12:55:39;;;;;;;;;;;;;;;;;;5004843;28;42802;-78
2023/03/05 12:58:05;;;;;;;;;;;;;;;;;;5005073;28;42963;-78
2023/03/05 13:00:32;;;;;;;;;;;;;;;;;;5004230;28;42927;-78
2023/03/05 13:02:58;;;;;;;;;;;;;;;;;;5004223;28;42822;-78
2023/03/05 13:05:24;;;;;;;;;;;;;;;;;;5004500;28;42967;-78
2023/03/05 13:07:50;;;;;;;;;;;;;;;;;;5006808;28;42964;-78
2023/03/05 13:10:16;;;;;;;;;;;;;;;;;;5008027;28;42907;-78
2023/03/05 13:12:42;;;;;;;;;;;;;;;;;;5006561;28;42989;-78
2023/03/05 13:15:08;;;;;;;;;;;;;;;;;;5008120;28;43663;-78
2023/03/05 13:17:34;;;;;;;;;;;;;;;;;;5007816;28;42826;-78
2023/03/05 13:20:00;;;;;;;;;;;;;;;;;;5008203;28;42815;-78
2023/03/05 13:22:26;;;;;;;;;;;;;;;;;;5007968;28;42775;-78
2023/03/05 13:24:53;;;;;;;;;;;;;;;;;;5007797;28;44392;-78
2023/03/05 13:27:19;;;;;;;;;;;;;;;;;;5008328;28;42723;-78
2023/03/05 13:29:45;;;;;;;;;;;;;;;;;;5008268;28;44452;-78
2023/03/05 13:32:10;;;;;;;;;;;;;;;;;;5008123;28;42954;-77
2023/03/05 13:34:36;;;;;;;;;;;;;;;;;;5007812;28;43716;-79
2023/03/05 13:37:02;;;;;;;;;;;;;;;;;;5007734;28;42869;-78
2023/03/05 13:39:28;;;;;;;;;;;;;;;;;;5008041;28;43008;-78
2023/03/05 13:41:54;;;;;;;;;;;;;;;;;;5008160;28;42884;-78
2023/03/05 13:44:23;;;;;;;;;;;;;;;;;;5007763;28;42845;-78
2023/03/05 13:46:48;;;;;;;;;;;;;;;;;;5008049;28;42865;-78
2023/03/05 13:49:14;;;;;;;;;;;;;;;;;;5007501;28;42952;-79
2023/03/05 13:51:40;;;;;;;;;;;;;;;;;;5006382;28;43040;-78
2023/03/05 13:54:09;;;;;;;;;;;;;;;;;;5006241;28;45247;-79
2023/03/05 13:56:34;;;;;;;;;;;;;;;;;;5006166;28;42934;-79
2023/03/05 13:59:00;;;;;;;;;;;;;;;;;;5006047;28;44679;-80
2023/03/05 14:01:27;;;;;;;;;;;;;;;;;;5007895;28;43067;-79
2023/03/05 14:03:54;;;;;;;;;;;;;;;;;;5007462;28;43372;-79
2023/03/05 14:06:20;;;;;;;;;;;;;;;;;;5007600;28;43033;-78
2023/03/05 14:08:46;;;;;;;;;;;;;;;;;;5007109;28;42962;-79
2023/03/05 14:11:12;;;;;;;;;;;;;;;;;;5007363;28;42996;-78
2023/03/05 14:13:38;;;;;;;;;;;;;;;;;;5007390;28;43679;-79
2023/03/05 14:16:04;;;;;;;;;;;;;;;;;;5005891;28;42970;-78
2023/03/05 14:18:30;;;;;;;;;;;;;;;;;;5006060;28;42964;-79
2023/03/05 14:20:56;;;;;;;;;;;;;;;;;;5006828;28;42972;-78
2023/03/05 14:23:22;;;;;;;;;;;;;;;;;;5007355;28;43664;-78
2023/03/05 14:25:48;;;;;;;;;;;;;;;;;;5008121;28;42748;-80
2023/03/05 14:28:14;;;;;;;;;;;;;;;;;;5007462;28;43395;-78
2023/03/05 14:30:40;;;;;;;;;;;;;;;;;;5005800;28;42975;-78
2023/03/05 14:33:06;;;;;;;;;;;;;;;;;;5007062;28;42975;-78
2023/03/05 14:35:31;;;;;;;;;;;;;;;;;;5007042;28;42972;-79
2023/03/05 14:37:57;;;;;;;;;;;;;;;;;;5007104;28;43071;-78
2023/03/05 14:40:24;;;;;;;;;;;;;;;;;;5007205;28;42943;-78
2023/03/05 14:42:50;;;;;;;;;;;;;;;;;;5007057;28;44032;-79
2023/03/05 14:45:16;;;;;;;;;;;;;;;;;;5006892;28;42838;-79
2023/03/05 14:47:42;;;;;;;;;;;;;;;;;;5006702;28;42834;-78
2023/03/05 14:50:08;;;;;;;;;;;;;;;;;;5006606;28;43084;-79
2023/03/05 14:52:33;;;;;;;;;;;;;;;;;;5006029;28;42846;-78
2023/03/05 14:54:59;;;;;;;;;;;;;;;;;;5006754;28;43075;-78
2023/03/05 14:57:25;;;;;;;;;;;;;;;;;;5006603;28;43406;-79
2023/03/05 14:59:51;;;;;;;;;;;;;;;;;;5006442;28;42884;-78
2023/03/05 15:02:17;;;;;;;;;;;;;;;;;;5006539;28;43465;-78
2023/03/05 15:04:45;;;;;;;;;;;;;;;;;;5006560;28;42862;-78
2023/03/05 15:07:11;;;;;;;;;;;;;;;;;;5006617;28;43622;-78
2023/03/05 15:09:37;;;;;;;;;;;;;;;;;;5006768;28;43030;-78
2023/03/05 15:12:03;;;;;;;;;;;;;;;;;;5006397;28;43417;-78
2023/03/05 15:14:28;;;;;;;;;;;;;;;;;;5006432;28;42688;-78
2023/03/05 15:16:54;;;;;;;;;;;;;;;;;;5006327;28;42929;-78
2023/03/05 15:19:20;;;;;;;;;;;;;;;;;;5006321;28;42894;-78
2023/03/05 15:21:46;;;;;;;;;;;;;;;;;;5006709;28;43647;-80
2023/03/05 15:24:13;;;;;;;;;;;;;;;;;;5004418;28;43143;-80
2023/03/05 15:26:39;;;;;;;;;;;;;;;;;;5004956;28;44596;-78
2023/03/05 15:29:05;;;;;;;;;;;;;;;;;;5007956;28;43011;-79
2023/03/05 15:31:37;;;;;;;;;;;;;;;;;;5016038;28;43008;-80
2023/03/05 15:34:03;;;;;;;;;;;;;;;;;;5002116;28;43026;-79
2023/03/05 15:36:29;;;;;;;;;;;;;;;;;;4997671;28;43926;-79
2023/03/05 15:38:55;;;;;;;;;;;;;;;;;;5033102;28;43206;-80
2023/03/05 15:41:21;;;;;;;;;;;;;;;;;;5001270;28;42981;-80
2023/03/05 15:43:47;;;;;;;;;;;;;;;;;;4994673;28;43217;-80
2023/03/05 15:46:13;;;;;;;;;;;;;;;;;;4994014;28;43191;-80
2023/03/05 15:48:38;;;;;;;;;;;;;;;;;;4995976;28;42849;-80
2023/03/05 15:51:04;;;;;;;;;;;;;;;;;;4993930;28;44027;-80
2023/03/05 15:53:30;;;;;;;;;;;;;;;;;;5011729;28;43181;-80
2023/03/05 15:55:56;;;;;;;;;;;;;;;;;;5006785;28;43498;-80
2023/03/05 15:58:22;;;;;;;;;;;;;;;;;;5012236;28;43164;-81
2023/03/05 16:00:48;;;;;;;;;;;;;;;;;;5011734;28;43030;-80
2023/03/05 16:03:14;;;;;;;;;;;;;;;;;;5017604;28;43469;-80
2023/03/05 16:05:40;;;;;;;;;;;;;;;;;;5008956;28;43596;-81
2023/03/05 16:08:06;;;;;;;;;;;;;;;;;;5007873;28;43233;-81
2023/03/05 16:10:32;;;;;;;;;;;;;;;;;;5014142;28;44059;-82
2023/03/05 16:12:58;;;;;;;;;;;;;;;;;;5027546;28;43131;-81
2023/03/05 16:15:24;;;;;;;;;;;;;;;;;;5013985;28;43852;-81
2023/03/05 16:17:49;;;;;;;;;;;;;;;;;;5013748;28;43035;-81
2023/03/05 16:20:15;;;;;;;;;;;;;;;;;;5014288;28;43544;-82
2023/03/05 16:22:41;;;;;;;;;;;;;;;;;;5004860;28;43123;-82
2023/03/05 16:25:07;;;;;;;;;;;;;;;;;;4997485;28;44534;-81
2023/03/05 16:27:33;;;;;;;;;;;;;;;;;;4996293;28;42872;-82
2023/03/05 16:29:59;;;;;;;;;;;;;;;;;;5018864;28;45255;-82
2023/03/05 16:32:25;;;;;;;;;;;;;;;;;;5018924;28;42953;-82
2023/03/05 16:34:51;;;;;;;;;;;;;;;;;;5006830;28;43629;-81
2023/03/05 16:37:18;;;;;;;;;;;;;;;;;;5013296;28;43066;-81